Time;durP1;ratioP1;P1;durP2;ratioP2;P2;SDS_P1;SDS_P2;PMS_P1;PMS_P2;Temp;Humidity;BMP_temperature;BMP_pressure;BME280_temperature;BME280_humidity;BME280_pressure;Samples;Min_cycle;Max_cycle;Signal;HPM_P1;HPM_P2
2022/06/11 00:01:37;;;;;;;10.13;4.45;;;18.70;99.90;;;;;;5022266;28;20029;-67
2022/06/11 00:04:20;;;;;;;6.95;3.50;;;18.70;99.90;;;;;;5021604;28;20084;-67
2022/06/11 00:06:49;;;;;;;9.27;3.90;;;18.70;99.90;;;;;;5021856;28;20041;-66
2022/06/11 00:09:16;;;;;;;9.57;4.22;;;18.70;99.90;;;;;;5022586;28;20029;-67
2022/06/11 00:11:42;;;;;;;7.82;4.00;;;18.60;99.90;;;;;;5022063;28;20021;-68
2022/06/11 00:14:15;;;;;;;7.03;3.72;;;18.60;99.90;;;;;;5021247;28;20041;-67
2022/06/11 00:16:41;;;;;;;10.13;4.10;;;18.60;99.90;;;;;;5022146;28;20074;-68
2022/06/11 00:19:08;;;;;;;7.47;4.45;;;18.60;99.90;;;;;;5022319;28;20053;-67
2022/06/11 00:21:36;;;;;;;7.25;4.03;;;18.50;99.90;;;;;;5022134;28;20022;-68
2022/06/11 00:24:03;;;;;;;6.80;4.07;;;18.60;99.90;;;;;;5021770;28;20018;-66
2022/06/11 00:26:30;;;;;;;10.70;4.00;;;18.50;99.90;;;;;;5021932;28;20042;-68
2022/06/11 00:28:57;;;;;;;4.38;3.17;;;18.50;99.90;;;;;;5022559;28;20018;-67
2022/06/11 00:31:23;;;;;;;9.13;3.95;;;18.50;99.90;;;;;;5021837;28;20022;-65
2022/06/11 00:33:49;;;;;;;7.72;4.38;;;18.50;99.90;;;;;;5022147;28;20034;-66
2022/06/11 00:36:18;;;;;;;8.15;4.57;;;18.50;99.90;;;;;;5022404;28;20029;-66
2022/06/11 00:38:46;;;;;;;6.70;4.22;;;18.50;99.90;;;;;;5021803;28;20022;-66
2022/06/11 00:41:12;;;;;;;11.63;4.70;;;18.50;99.90;;;;;;5021953;28;20045;-65
2022/06/11 00:43:39;;;;;;;6.90;3.63;;;18.40;99.90;;;;;;5022262;28;21466;-67
2022/06/11 00:46:08;;;;;;;6.47;3.70;;;18.50;99.90;;;;;;5021976;28;20041;-67
2022/06/11 00:48:38;;;;;;;11.73;4.75;;;18.50;99.90;;;;;;5021852;28;20038;-67
2022/06/11 00:51:17;;;;;;;13.38;4.93;;;18.50;99.90;;;;;;5004167;28;20030;-68
2022/06/11 00:53:48;;;;;;;11.82;4.15;;;18.50;99.90;;;;;;5021584;28;20068;-68
2022/06/11 00:56:23;;;;;;;8.60;4.22;;;18.50;99.90;;;;;;5022311;28;20089;-67
2022/06/11 00:58:50;;;;;;;;;;;18.50;99.90;;;;;;5022760;28;20044;-69
2022/06/11 01:01:20;;;;;;;7.05;4.18;;;18.50;99.90;;;;;;5022141;28;19905;-66
2022/06/11 01:03:48;;;;;;;6.55;3.97;;;18.50;99.90;;;;;;5022022;28;20094;-68
2022/06/11 01:06:19;;;;;;;7.25;4.18;;;18.50;99.90;;;;;;5022074;28;20083;-66
2022/06/11 01:09:07;;;;;;;17.40;5.68;;;18.50;99.90;;;;;;5021489;28;20093;-66
2022/06/11 01:12:06;;;;;;;24.27;5.40;;;18.50;99.90;;;;;;5021620;28;20103;-67
2022/06/11 01:14:48;;;;;;;8.15;5.07;;;18.50;99.90;;;;;;5021595;28;20022;-66
2022/06/11 01:17:13;;;;;;;7.18;5.13;;;18.50;99.90;;;;;;5022649;28;20157;-68
2022/06/11 01:20:18;;;;;;;13.63;6.85;;;18.50;99.90;;;;;;5025406;28;20033;-66
2022/06/11 01:23:25;;;;;;;16.65;6.47;;;18.40;99.90;;;;;;5024947;28;20049;-66
2022/06/11 01:26:12;;;;;;;13.85;6.93;;;18.40;99.90;;;;;;5025278;28;20042;-68
2022/06/11 01:29:07;;;;;;;11.10;5.18;;;18.40;99.90;;;;;;5023818;28;20034;-66
2022/06/11 01:31:41;;;;;;;12.55;6.10;;;18.40;99.90;;;;;;5025353;28;20022;-69
2022/06/11 01:34:13;;;;;;;11.70;5.55;;;18.30;99.90;;;;;;5024850;28;20030;-67
2022/06/11 01:36:41;;;;;;;15.80;6.75;;;18.30;99.90;;;;;;5024483;28;20453;-67
2022/06/11 01:39:48;;;;;;;12.30;5.20;;;18.30;99.90;;;;;;5024787;28;20018;-66
2022/06/11 01:42:27;;;;;;;8.80;6.13;;;18.20;99.90;;;;;;5022338;28;20101;-67
2022/06/11 01:45:08;;;;;;;9.50;5.50;;;18.30;99.90;;;;;;5024986;28;20099;-65
2022/06/11 01:47:35;;;;;;;11.27;5.40;;;18.20;99.90;;;;;;5024471;28;20033;-68
2022/06/11 01:50:01;;;;;;;12.75;5.78;;;18.20;99.90;;;;;;5024202;28;20029;-67
2022/06/11 01:52:58;;;;;;;15.05;6.22;;;18.20;99.90;;;;;;5024809;28;20068;-67
2022/06/11 01:55:48;;;;;;;9.82;5.53;;;18.20;99.90;;;;;;5024547;28;20153;-66
2022/06/11 01:58:40;;;;;;;11.45;5.68;;;18.20;99.90;;;;;;5024772;28;20018;-66
2022/06/11 02:01:17;;;;;;;10.98;5.60;;;18.20;99.90;;;;;;5024648;28;20026;-67
2022/06/11 02:03:56;;;;;;;9.80;5.68;;;18.20;99.90;;;;;;5023852;28;20030;-65
2022/06/11 02:06:36;;;;;;;11.73;5.93;;;18.10;99.90;;;;;;5024618;28;20085;-68
2022/06/11 02:09:23;;;;;;;8.45;5.05;;;18.10;99.90;;;;;;5024487;28;20118;-66
2022/06/11 02:11:55;;;;;;;21.50;6.43;;;18.10;99.90;;;;;;5024243;28;20111;-67
2022/06/11 02:14:33;;;;;;;8.70;4.82;;;18.10;99.90;;;;;;5024601;28;20683;-65
2022/06/11 02:17:14;;;;;;;10.68;5.85;;;18.00;99.90;;;;;;5023556;28;20050;-66
2022/06/11 02:20:16;;;;;;;12.63;6.53;;;18.00;99.90;;;;;;5024278;28;20030;-68
2022/06/11 02:22:51;;;;;;;10.82;5.78;;;18.00;99.90;;;;;;5019273;28;20426;-67
2022/06/11 02:25:35;;;;;;;10.02;5.80;;;17.90;99.90;;;;;;5024084;28;20026;-66
2022/06/11 02:28:05;;;;;;;9.33;5.93;;;17.90;99.90;;;;;;5023600;28;20029;-66
2022/06/11 02:30:32;;;;;;;14.70;6.30;;;17.80;99.90;;;;;;5023075;28;20049;-68
2022/06/11 02:32:59;;;;;;;8.18;5.60;;;17.80;99.90;;;;;;5024086;28;20104;-68
2022/06/11 02:35:58;;;;;;;13.88;5.95;;;17.80;99.90;;;;;;5024313;28;20038;-67
2022/06/11 02:38:27;;;;;;;9.77;5.75;;;17.70;99.90;;;;;;5023746;28;20017;-67
2022/06/11 02:40:58;;;;;;;8.10;5.10;;;17.70;99.90;;;;;;5023382;28;20049;-68
2022/06/11 02:43:24;;;;;;;10.07;6.10;;;17.70;99.90;;;;;;5023606;28;20042;-68
2022/06/11 02:45:50;;;;;;;11.13;6.45;;;17.70;99.90;;;;;;5023553;28;20041;-67
2022/06/11 02:48:16;;;;;;;25.10;6.93;;;17.70;99.90;;;;;;5024009;28;20135;-69
2022/06/11 02:50:43;;;;;;;12.00;6.40;;;17.60;99.90;;;;;;5023672;28;20022;-66
2022/06/11 02:53:10;;;;;;;18.52;5.88;;;17.60;99.90;;;;;;5022915;28;20030;-66
2022/06/11 02:55:37;;;;;;;10.75;6.40;;;17.50;99.90;;;;;;5023542;28;20034;-67
2022/06/11 02:58:05;;;;;;;9.23;5.32;;;17.50;99.90;;;;;;5023135;28;20045;-68
2022/06/11 03:00:36;;;;;;;8.07;5.25;;;17.50;99.90;;;;;;5005624;28;20394;-66
2022/06/11 03:03:02;;;;;;;9.43;4.38;;;17.40;99.90;;;;;;5022917;28;20037;-69
2022/06/11 03:05:31;;;;;;;14.10;5.55;;;17.40;99.90;;;;;;5022990;28;20036;-67
2022/06/11 03:07:59;;;;;;;12.77;6.18;;;17.40;99.90;;;;;;5022902;28;20025;-66
2022/06/11 03:10:26;;;;;;;9.70;4.85;;;17.40;99.90;;;;;;5023151;28;20026;-67
2022/06/11 03:12:52;;;;;;;9.95;5.18;;;17.30;99.90;;;;;;5023229;28;20061;-65
2022/06/11 03:15:21;;;;;;;12.15;6.07;;;17.30;99.90;;;;;;5023491;28;20022;-69
2022/06/11 03:17:48;;;;;;;11.85;5.82;;;17.30;99.90;;;;;;5022629;28;20044;-66
2022/06/11 03:20:16;;;;;;;8.50;5.93;;;17.30;99.90;;;;;;5022825;28;20037;-66
2022/06/11 03:22:42;;;;;;;13.48;5.93;;;17.20;99.90;;;;;;5022743;28;20021;-66
2022/06/11 03:25:09;;;;;;;9.57;4.88;;;17.20;99.90;;;;;;5023202;28;20057;-66
2022/06/11 03:27:35;;;;;;;10.55;5.97;;;17.20;99.90;;;;;;5022322;28;20098;-67
2022/06/11 03:30:02;;;;;;;17.08;5.45;;;17.20;99.90;;;;;;5022905;28;20125;-67
2022/06/11 03:32:28;;;;;;;8.75;5.47;;;17.20;99.90;;;;;;5023158;28;20025;-67
2022/06/11 03:34:54;;;;;;;15.05;6.32;;;17.10;99.90;;;;;;5022167;28;20018;-69
2022/06/11 03:37:20;;;;;;;12.32;6.05;;;17.10;99.90;;;;;;5023143;28;20034;-65
2022/06/11 03:39:46;;;;;;;10.88;6.45;;;17.10;99.90;;;;;;5022370;28;20017;-69
2022/06/11 03:42:13;;;;;;;9.20;5.13;;;17.20;99.90;;;;;;5004314;28;20077;-68
2022/06/11 03:44:39;;;;;;;12.90;6.85;;;17.20;99.90;;;;;;5022334;28;20022;-66
2022/06/11 03:47:05;;;;;;;16.58;7.05;;;17.20;99.90;;;;;;5022612;28;20164;-66
2022/06/11 03:49:30;;;;;;;14.55;6.55;;;17.20;99.90;;;;;;5022145;28;20045;-69
2022/06/11 03:51:56;;;;;;;10.30;5.75;;;17.20;99.90;;;;;;5022683;28;20515;-67
2022/06/11 03:54:22;;;;;;;10.02;4.88;;;17.20;99.90;;;;;;5022776;28;20022;-66
2022/06/11 03:56:49;;;;;;;8.27;4.85;;;17.20;99.90;;;;;;5022451;28;20030;-68
2022/06/11 03:59:16;;;;;;;12.60;5.45;;;17.10;99.90;;;;;;5022885;28;20053;-66
2022/06/11 04:01:43;;;;;;;11.27;5.18;;;17.20;99.90;;;;;;5022231;28;20029;-67
2022/06/11 04:04:11;;;;;;;8.63;5.78;;;17.20;99.90;;;;;;5022123;28;20056;-70
2022/06/11 04:06:53;;;;;;;7.78;4.43;;;17.20;99.90;;;;;;5021935;28;20050;-67
2022/06/11 04:09:45;;;;;;;19.38;4.60;;;17.20;99.90;;;;;;5022092;28;20026;-67
2022/06/11 04:12:15;;;;;;;9.45;5.35;;;17.20;99.90;;;;;;5018498;28;20042;-68
2022/06/11 04:14:46;;;;;;;14.90;5.45;;;17.20;99.90;;;;;;5022536;28;20044;-67
2022/06/11 04:17:16;;;;;;;17.70;5.45;;;17.20;99.90;;;;;;5021364;28;20049;-65
2022/06/11 04:19:45;;;;;;;9.98;4.93;;;17.30;99.90;;;;;;5022117;28;20056;-68
2022/06/11 04:22:11;;;;;;;9.10;5.35;;;17.30;99.90;;;;;;5022032;28;20030;-67
2022/06/11 04:24:37;;;;;;;16.45;6.25;;;17.30;99.90;;;;;;5004168;28;20384;-66
2022/06/11 04:27:05;;;;;;;7.53;4.30;;;17.40;99.90;;;;;;5021916;28;20158;-67
2022/06/11 04:29:34;;;;;;;11.40;5.10;;;17.50;99.90;;;;;;5022014;28;20034;-67
2022/06/11 04:32:02;;;;;;;9.55;5.38;;;17.60;99.90;;;;;;5021762;28;20017;-69
2022/06/11 04:34:28;;;;;;;10.38;5.03;;;17.60;99.90;;;;;;5021786;28;20018;-67
2022/06/11 04:36:55;;;;;;;18.58;4.80;;;17.70;99.90;;;;;;5004720;28;20022;-68
2022/06/11 04:39:23;;;;;;;12.38;5.38;;;17.70;99.90;;;;;;5021653;28;20025;-67
2022/06/11 04:41:50;;;;;;;8.57;4.82;;;17.70;99.90;;;;;;5021978;28;20026;-68
2022/06/11 04:44:16;;;;;;;7.82;4.60;;;17.80;99.90;;;;;;5022074;28;20026;-67
2022/06/11 04:46:42;;;;;;;8.50;4.70;;;17.80;99.90;;;;;;5021931;28;20038;-67
2022/06/11 04:49:08;;;;;;;9.70;5.35;;;17.80;99.90;;;;;;5022025;28;20049;-67
2022/06/11 04:51:34;;;;;;;10.05;5.00;;;17.90;99.90;;;;;;5022641;28;20105;-66
2022/06/11 04:53:59;;;;;;;9.35;5.35;;;17.90;99.90;;;;;;5025547;28;20037;-67
2022/06/11 04:56:27;;;;;;;9.00;4.95;;;17.90;99.90;;;;;;5025424;28;20030;-67
2022/06/11 04:58:54;;;;;;;9.85;5.00;;;17.90;99.90;;;;;;5025345;28;20045;-67
2022/06/11 05:01:31;;;;;;;9.45;5.00;;;17.80;99.90;;;;;;5020319;28;20049;-71
2022/06/11 05:03:56;;;;;;;8.13;4.25;;;17.80;99.90;;;;;;5022120;28;20046;-69
2022/06/11 05:06:27;;;;;;;7.65;4.60;;;17.90;99.90;;;;;;5023906;28;20048;-69
2022/06/11 05:08:53;;;;;;;14.02;6.07;;;17.90;99.90;;;;;;5022972;28;20449;-69
2022/06/11 05:11:20;;;;;;;20.88;5.93;;;17.90;99.90;;;;;;5025950;28;20453;-68
2022/06/11 05:13:45;;;;;;;19.13;6.07;;;17.90;99.90;;;;;;5025554;28;20045;-68
2022/06/11 05:16:16;;;;;;;14.23;6.05;;;17.90;99.90;;;;;;5024616;28;20022;-68
2022/06/11 05:18:42;;;;;;;12.27;6.50;;;17.90;99.90;;;;;;5022647;28;20033;-68
2022/06/11 05:21:07;;;;;;;9.38;5.20;;;18.00;99.90;;;;;;5025004;28;20147;-68
2022/06/11 05:23:33;;;;;;;9.65;6.00;;;18.00;99.90;;;;;;5024519;28;20041;-68
2022/06/11 05:25:59;;;;;;;10.68;6.00;;;18.10;99.90;;;;;;5018313;28;20062;-68
2022/06/11 05:28:29;;;;;;;13.23;6.55;;;18.10;99.90;;;;;;5018740;28;20022;-69
2022/06/11 05:30:57;;;;;;;10.60;6.18;;;18.20;99.90;;;;;;5024445;28;20037;-71
2022/06/11 05:33:24;;;;;;;15.07;5.72;;;18.20;99.90;;;;;;5022750;28;20049;-67
2022/06/11 05:35:51;;;;;;;11.98;5.63;;;18.20;99.90;;;;;;5023267;28;20033;-69
2022/06/11 05:38:24;;;;;;;11.98;6.10;;;18.10;99.90;;;;;;5023768;28;20048;-68
2022/06/11 05:40:51;;;;;;;12.15;6.75;;;18.10;99.90;;;;;;5023487;28;20489;-69
2022/06/11 05:43:20;;;;;;;8.93;5.13;;;18.00;99.90;;;;;;5019149;28;20058;-66
2022/06/11 05:45:51;;;;;;;13.80;5.53;;;18.10;99.90;;;;;;5023505;28;20038;-68
2022/06/11 05:48:21;;;;;;;13.45;4.70;;;18.10;99.90;;;;;;5023664;28;20061;-69
2022/06/11 05:50:50;;;;;;;10.77;4.90;;;18.20;99.90;;;;;;5023765;28;20410;-70
2022/06/11 05:53:19;;;;;;;9.30;5.50;;;18.30;99.90;;;;;;5023240;28;20021;-67
2022/06/11 05:55:47;;;;;;;15.20;5.75;;;18.30;99.90;;;;;;5024218;28;20029;-69
2022/06/11 05:58:17;;;;;;;6.43;4.63;;;18.40;99.90;;;;;;5023498;28;20037;-68
2022/06/11 06:00:44;;;;;;;9.23;5.10;;;18.40;99.90;;;;;;5024444;28;20525;-70
2022/06/11 06:03:10;;;;;;;11.98;4.95;;;18.40;99.90;;;;;;5023071;28;20033;-68
2022/06/11 06:05:36;;;;;;;10.98;4.55;;;18.40;99.90;;;;;;5024223;28;20026;-70
2022/06/11 06:08:02;;;;;;;9.05;5.05;;;18.40;99.90;;;;;;5022773;28;20040;-69
2022/06/11 06:10:28;;;;;;;14.38;6.15;;;18.40;99.90;;;;;;5022177;28;20104;-69
2022/06/11 06:12:54;;;;;;;12.57;5.30;;;18.40;99.90;;;;;;5022708;28;20092;-67
2022/06/11 06:15:24;;;;;;;12.40;6.07;;;18.40;99.90;;;;;;5024172;28;20029;-69
2022/06/11 06:17:51;;;;;;;9.55;5.53;;;18.50;99.90;;;;;;5022887;28;20086;-69
2022/06/11 06:20:19;;;;;;;9.90;5.05;;;18.50;99.90;;;;;;5023197;28;20034;-68
2022/06/11 06:22:45;;;;;;;40.67;5.07;;;18.50;99.90;;;;;;5005364;28;20038;-68
2022/06/11 06:25:17;;;;;;;11.40;4.57;;;18.50;99.90;;;;;;5023269;28;20030;-69
2022/06/11 06:27:43;;;;;;;7.65;4.43;;;18.50;99.90;;;;;;5023857;28;20438;-68
2022/06/11 06:30:09;;;;;;;13.98;4.70;;;18.60;99.90;;;;;;5024216;28;20022;-70
2022/06/11 06:32:34;;;;;;;11.32;4.25;;;18.70;99.90;;;;;;5022097;28;20524;-69
2022/06/11 06:35:00;;;;;;;7.55;3.63;;;18.70;99.90;;;;;;5021737;28;20085;-70
2022/06/11 06:37:26;;;;;;;5.28;2.67;;;18.80;99.90;;;;;;5022972;28;20053;-68
2022/06/11 06:39:58;;;;;;;8.55;3.53;;;18.90;99.90;;;;;;5023502;28;20081;-69
2022/06/11 06:42:23;;;;;;;7.68;3.60;;;18.90;99.90;;;;;;5022914;28;20033;-71
2022/06/11 06:44:49;;;;;;;8.10;2.65;;;19.00;99.90;;;;;;5022332;28;20037;-71
2022/06/11 06:47:14;;;;;;;4.53;2.83;;;19.20;99.90;;;;;;5022351;28;20044;-70
2022/06/11 06:49:40;;;;;;;5.45;2.70;;;19.20;99.90;;;;;;5022918;28;20061;-69
2022/06/11 06:52:06;;;;;;;6.28;2.72;;;19.30;99.90;;;;;;5022219;28;20026;-72
2022/06/11 06:54:33;;;;;;;5.70;2.30;;;19.40;99.90;;;;;;5021574;28;20052;-70
2022/06/11 06:56:59;;;;;;;4.03;2.35;;;19.50;99.90;;;;;;5020805;28;20024;-69
2022/06/11 06:59:25;;;;;;;5.55;2.33;;;19.50;99.90;;;;;;5022190;28;20522;-73
2022/06/11 07:01:51;;;;;;;4.95;1.85;;;19.50;99.90;;;;;;5021848;28;20014;-69
2022/06/11 07:04:17;;;;;;;9.00;1.88;;;19.40;99.90;;;;;;5023463;28;20049;-68
2022/06/11 07:06:42;;;;;;;6.00;1.98;;;19.40;99.90;;;;;;5022245;28;20893;-68
2022/06/11 07:09:09;;;;;;;4.28;1.80;;;19.40;99.90;;;;;;5021177;28;20022;-70
2022/06/11 07:11:35;;;;;;;4.05;1.90;;;19.40;99.90;;;;;;5022576;28;20026;-69
2022/06/11 07:14:00;;;;;;;4.35;2.10;;;19.50;99.90;;;;;;5021693;28;20037;-69
2022/06/11 07:16:34;;;;;;;9.38;2.30;;;19.50;99.90;;;;;;5021041;28;20048;-71
2022/06/11 07:19:03;;;;;;;11.15;2.60;;;19.60;99.90;;;;;;5004906;28;20050;-72
2022/06/11 07:21:34;;;;;;;2.80;1.95;;;19.70;99.90;;;;;;5022130;28;20022;-69
2022/06/11 07:24:07;;;;;;;8.30;2.33;;;19.80;99.90;;;;;;5023119;28;20061;-69
2022/06/11 07:26:37;;;;;;;4.70;1.83;;;19.80;99.90;;;;;;5022627;28;20030;-70
2022/06/11 07:29:13;;;;;;;4.55;1.77;;;19.90;99.90;;;;;;5022710;28;20368;-69
2022/06/11 07:31:42;;;;;;;7.90;2.25;;;20.00;99.90;;;;;;5023191;28;20022;-70
2022/06/11 07:34:07;;;;;;;2.95;1.70;;;20.00;99.90;;;;;;5021152;28;20025;-67
2022/06/11 07:36:34;;;;;;;2.67;1.70;;;20.00;99.90;;;;;;5021135;28;20030;-69
2022/06/11 07:38:59;;;;;;;3.97;1.77;;;20.00;99.90;;;;;;5022484;28;20060;-72
2022/06/11 07:41:28;;;;;;;3.22;1.88;;;20.00;99.90;;;;;;5003729;28;20033;-72
2022/06/11 07:43:55;;;;;;;3.97;1.60;;;20.00;99.90;;;;;;5003169;28;20049;-69
2022/06/11 07:46:21;;;;;;;4.22;2.08;;;19.90;99.90;;;;;;5020975;28;20120;-73
2022/06/11 07:48:48;;;;;;;2.53;1.50;;;19.90;99.90;;;;;;5003679;28;20034;-69
2022/06/11 07:51:18;;;;;;;5.90;1.83;;;19.90;99.90;;;;;;5021136;28;20402;-71
2022/06/11 07:53:46;;;;;;;4.15;1.88;;;20.00;99.90;;;;;;5021561;28;20049;-69
2022/06/11 07:56:13;;;;;;;8.05;1.98;;;20.10;99.90;;;;;;5003393;28;20142;-68
2022/06/11 07:58:38;;;;;;;3.20;1.58;;;20.10;99.90;;;;;;5021945;28;20025;-69
2022/06/11 08:01:07;;;;;;;3.22;1.23;;;20.20;99.90;;;;;;5021947;28;20503;-73
2022/06/11 08:03:34;;;;;;;4.57;2.25;;;20.10;99.90;;;;;;5018536;28;20034;-69
2022/06/11 08:06:02;;;;;;;3.40;1.60;;;20.30;99.90;;;;;;5021770;28;20069;-71
2022/06/11 08:08:28;;;;;;;4.43;2.03;;;20.20;99.90;;;;;;5020571;28;20018;-69
2022/06/11 08:10:55;;;;;;;4.70;2.28;;;20.20;99.90;;;;;;5021188;28;20030;-72
2022/06/11 08:13:21;;;;;;;3.25;1.80;;;20.00;99.90;;;;;;5021911;28;20072;-74
2022/06/11 08:15:49;;;;;;;3.47;1.70;;;19.90;99.90;;;;;;5004883;28;20096;-69
2022/06/11 08:18:17;;;;;;;3.65;1.90;;;19.90;99.90;;;;;;5019771;28;20054;-74
2022/06/11 08:20:44;;;;;;;4.10;2.25;;;19.80;99.90;;;;;;5021128;28;20057;-70
2022/06/11 08:23:10;;;;;;;6.15;2.28;;;19.80;99.90;;;;;;5021884;28;20014;-69
2022/06/11 08:25:36;;;;;;;4.97;2.65;;;19.80;99.90;;;;;;5002913;28;20038;-71
2022/06/11 08:28:02;;;;;;;5.22;2.25;;;19.90;99.90;;;;;;5024811;28;20034;-69
2022/06/11 08:30:30;;;;;;;4.75;1.98;;;20.00;99.90;;;;;;5025993;28;20034;-71
2022/06/11 08:32:55;;;;;;;4.38;1.77;;;20.10;99.90;;;;;;5025270;28;20053;-73
2022/06/11 08:35:24;;;;;;;3.80;1.80;;;20.10;99.90;;;;;;5023118;28;20083;-73
2022/06/11 08:37:50;;;;;;;6.68;2.42;;;20.10;99.90;;;;;;5025659;28;20044;-73
2022/06/11 08:40:39;;;;;;;4.88;2.38;;;20.20;99.90;;;;;;5023751;28;20116;-70
2022/06/11 08:43:26;;;;;;;9.40;1.98;;;20.30;99.90;;;;;;5025341;28;20022;-70
2022/06/11 08:46:02;;;;;;;5.97;2.30;;;20.30;99.90;;;;;;5024981;28;20453;-73
2022/06/11 08:48:50;;;;;;;5.25;2.28;;;20.40;99.90;;;;;;5025512;28;20034;-73
2022/06/11 08:51:24;;;;;;;10.10;2.20;;;20.40;99.90;;;;;;5024921;28;20113;-69
2022/06/11 08:53:54;;;;;;;5.85;2.70;;;20.50;99.90;;;;;;5022944;28;20038;-73
2022/06/11 08:56:50;;;;;;;6.57;2.50;;;20.50;99.90;;;;;;5024835;28;20068;-70
2022/06/11 08:59:25;;;;;;;12.70;2.28;;;20.50;99.90;;;;;;5019262;28;20061;-70
2022/06/11 09:01:57;;;;;;;4.40;2.42;;;20.60;99.90;;;;;;5024321;28;21375;-76
2022/06/11 09:04:30;;;;;;;9.93;2.58;;;20.60;99.90;;;;;;5024159;28;20057;-67
2022/06/11 09:07:28;;;;;;;8.88;2.25;;;20.70;99.90;;;;;;5022265;28;20069;-71
2022/06/11 09:10:06;;;;;;;6.07;2.13;;;20.90;99.90;;;;;;5023594;28;20041;-72
2022/06/11 09:13:00;;;;;;;8.10;2.22;;;21.00;99.90;;;;;;5023862;28;20025;-68
2022/06/11 09:15:34;;;;;;;3.92;2.17;;;21.10;99.90;;;;;;5022323;28;20108;-69
2022/06/11 09:18:00;;;;;;;;;;;21.10;99.90;;;;;;5024175;28;20203;-67
2022/06/11 09:20:41;;;;;;;4.57;1.95;;;21.20;99.90;;;;;;5023846;28;20350;-69
2022/06/11 09:23:28;;;;;;;6.07;2.17;;;21.20;99.90;;;;;;5024754;28;20029;-69
2022/06/11 09:26:12;;;;;;;3.78;1.73;;;21.30;99.90;;;;;;5023417;28;20077;-69
2022/06/11 09:28:48;;;;;;;7.38;2.00;;;21.40;99.90;;;;;;5024322;28;20048;-69
2022/06/11 09:31:33;;;;;;;5.13;1.77;;;21.40;99.90;;;;;;5025110;28;20036;-69
2022/06/11 09:34:33;;;;;;;3.78;1.88;;;21.40;99.90;;;;;;5023284;28;20026;-69
2022/06/11 09:37:18;;;;;;;9.23;3.03;;;21.40;99.90;;;;;;5022236;28;20045;-73
2022/06/11 09:40:28;;;;;;;11.85;2.08;;;21.40;99.90;;;;;;5023123;28;20026;-65
2022/06/11 09:43:09;;;;;;;7.80;2.25;;;21.50;99.90;;;;;;4986270;28;20038;-65
2022/06/11 09:45:47;;;;;;;5.32;2.05;;;21.60;99.90;;;;;;5024916;28;20025;-66
2022/06/11 09:48:22;;;;;;;5.20;2.13;;;21.70;99.90;;;;;;5023776;28;20029;-70
2022/06/11 09:51:01;;;;;;;9.05;1.88;;;21.90;99.90;;;;;;5024838;28;20046;-70
2022/06/11 09:53:46;;;;;;;7.95;2.13;;;22.10;99.90;;;;;;5024410;28;20037;-70
2022/06/11 09:56:47;;;;;;;8.63;1.77;;;22.10;99.90;;;;;;5023987;28;20026;-69
2022/06/11 09:59:31;;;;;;;4.53;1.70;;;22.10;99.90;;;;;;5018877;28;20034;-73
2022/06/11 10:02:06;;;;;;;6.10;1.48;;;22.00;99.90;;;;;;5020684;28;20048;-69
2022/06/11 10:04:35;;;;;;;6.88;2.17;;;22.10;99.90;;;;;;5020719;28;20050;-70
2022/06/11 10:07:25;;;;;;;6.63;1.77;;;22.20;99.90;;;;;;5003418;28;20065;-72
2022/06/11 10:10:02;;;;;;;4.93;1.45;;;22.40;99.90;;;;;;5016065;28;20070;-71
2022/06/11 10:12:33;;;;;;;3.15;1.48;;;22.60;99.90;;;;;;5023823;28;20076;-68
2022/06/11 10:15:11;;;;;;;5.22;1.95;;;22.60;99.90;;;;;;5024064;28;20029;-73
2022/06/11 10:17:57;;;;;;;6.93;1.48;;;22.50;99.90;;;;;;5019370;28;20057;-70
2022/06/11 10:20:37;;;;;;;5.38;2.03;;;22.30;99.90;;;;;;5023709;28;20053;-73
2022/06/11 10:23:03;;;;;;;4.55;1.60;;;22.30;99.90;;;;;;5020557;28;20025;-69
2022/06/11 10:25:37;;;;;;;3.13;1.15;;;22.30;99.90;;;;;;5021579;28;20049;-69
2022/06/11 10:28:16;;;;;;;6.80;2.05;;;22.40;99.90;;;;;;5005763;28;20478;-69
2022/06/11 10:30:47;;;;;;;9.80;2.20;;;22.50;99.90;;;;;;5023944;28;20041;-70
2022/06/11 10:33:22;;;;;;;4.95;2.10;;;22.70;99.90;;;;;;5023287;28;20080;-70
2022/06/11 10:36:05;;;;;;;5.57;2.00;;;22.80;99.90;;;;;;5023403;28;20061;-69
2022/06/11 10:38:54;;;;;;;4.55;1.70;;;22.80;99.90;;;;;;5004918;28;20115;-70
2022/06/11 10:41:39;;;;;;;7.40;1.50;;;22.90;99.90;;;;;;5005776;28;20045;-76
2022/06/11 10:44:16;;;;;;;5.43;1.70;;;23.00;99.90;;;;;;5023762;28;20025;-71
2022/06/11 10:46:42;;;;;;;10.38;1.50;;;23.00;99.90;;;;;;5022828;28;20033;-70
2022/06/11 10:49:17;;;;;;;8.48;1.52;;;22.90;99.90;;;;;;5021635;28;20085;-69
2022/06/11 10:51:57;;;;;;;3.55;1.27;;;23.00;99.90;;;;;;5023679;28;20037;-70
2022/06/11 10:54:26;;;;;;;4.57;1.75;;;23.10;99.90;;;;;;5005405;28;20026;-72
2022/06/11 10:57:00;;;;;;;8.18;1.77;;;23.20;99.90;;;;;;5021934;28;20033;-72
2022/06/11 10:59:43;;;;;;;5.65;1.65;;;23.10;99.90;;;;;;5022929;28;20471;-69
2022/06/11 11:02:28;;;;;;;2.20;1.30;;;23.10;99.90;;;;;;5023253;28;20026;-70
2022/06/11 11:04:55;;;;;;;7.55;1.88;;;23.20;99.90;;;;;;5022892;28;20053;-71
2022/06/11 11:07:24;;;;;;;5.10;1.63;;;23.40;99.90;;;;;;5023746;28;20049;-72
2022/06/11 11:09:50;;;;;;;2.78;1.77;;;23.50;99.90;;;;;;5023318;28;20048;-70
2022/06/11 11:12:23;;;;;;;7.75;1.52;;;23.60;99.90;;;;;;5022326;28;20021;-71
2022/06/11 11:15:02;;;;;;;2.90;1.47;;;23.80;99.90;;;;;;5023319;28;20057;-69
2022/06/11 11:17:32;;;;;;;5.53;1.60;;;24.00;99.90;;;;;;5021407;28;20045;-70
2022/06/11 11:20:30;;;;;;;11.32;1.90;;;24.10;99.90;;;;;;5022611;28;20033;-75
2022/06/11 11:23:13;;;;;;;6.25;2.05;;;23.90;99.90;;;;;;5007468;28;20085;-69
2022/06/11 11:25:51;;;;;;;5.25;1.77;;;23.80;99.90;;;;;;5022498;28;20060;-70
2022/06/11 11:28:30;;;;;;;10.57;2.08;;;23.70;99.90;;;;;;5002924;28;20800;-69
2022/06/11 11:31:04;;;;;;;2.60;1.13;;;23.70;99.90;;;;;;5018218;28;20029;-71
2022/06/11 11:33:39;;;;;;;3.92;1.25;;;23.80;99.90;;;;;;5021582;28;20030;-70
2022/06/11 11:36:16;;;;;;;6.65;1.80;;;24.00;99.90;;;;;;5023076;28;20034;-68
2022/06/11 11:38:41;;;;;;;3.78;1.80;;;24.10;99.90;;;;;;5004824;28;20105;-72
2022/06/11 11:41:24;;;;;;;3.28;1.30;;;24.00;99.90;;;;;;5022912;28;20033;-70
2022/06/11 11:43:55;;;;;;;5.78;1.15;;;24.20;99.90;;;;;;5022840;28;20383;-74
2022/06/11 11:46:24;;;;;;;9.18;1.95;;;24.50;99.90;;;;;;5021969;28;20494;-68
2022/06/11 11:48:53;;;;;;;5.43;1.90;;;24.70;99.90;;;;;;5022384;28;20018;-73
2022/06/11 11:51:29;;;;;;;14.30;1.70;;;25.00;99.90;;;;;;5022187;28;20025;-71
2022/06/11 11:54:01;;;;;;;4.50;1.52;;;25.00;99.90;;;;;;5021456;28;20060;-75
2022/06/11 11:56:39;;;;;;;4.15;1.60;;;25.20;99.90;;;;;;5022279;28;20033;-69
2022/06/11 11:59:24;;;;;;;9.82;1.67;;;25.10;99.90;;;;;;5022310;28;20022;-71
2022/06/11 12:01:54;;;;;;;5.13;1.45;;;24.90;99.90;;;;;;5021734;28;20117;-71
2022/06/11 12:04:31;;;;;;;7.20;1.67;;;24.70;99.90;;;;;;5021735;28;20026;-72
2022/06/11 12:07:06;;;;;;;3.05;1.45;;;24.60;99.90;;;;;;5022251;28;20042;-73
2022/06/11 12:09:54;;;;;;;3.45;1.45;;;24.60;99.90;;;;;;5022613;28;20025;-74
2022/06/11 12:12:26;;;;;;;3.38;1.13;;;24.70;99.90;;;;;;5022350;28;20030;-70
2022/06/11 12:14:57;;;;;;;6.22;1.27;;;24.80;99.90;;;;;;5022686;28;20018;-71
2022/06/11 12:17:42;;;;;;;9.07;1.90;;;24.70;99.90;;;;;;5021740;28;20058;-73
2022/06/11 12:20:34;;;;;;;5.70;2.33;;;24.60;99.90;;;;;;5022058;28;20057;-68
2022/06/11 12:23:19;;;;;;;10.88;1.17;;;24.90;99.90;;;;;;5013611;28;20573;-69
2022/06/11 12:26:02;;;;;;;3.10;1.15;;;25.20;99.90;;;;;;5021969;28;20117;-71
2022/06/11 12:28:34;;;;;;;3.05;1.08;;;25.10;99.90;;;;;;5021772;28;20032;-70
2022/06/11 12:30:59;;;;;;;5.65;1.63;;;25.00;99.90;;;;;;5022408;28;20146;-71
2022/06/11 12:33:27;;;;;;;7.68;1.40;;;24.80;99.90;;;;;;5022009;28;20021;-71
2022/06/11 12:36:15;;;;;;;3.85;1.38;;;24.70;99.90;;;;;;5022342;28;20037;-69
2022/06/11 12:39:14;;;;;;;5.43;1.40;;;24.70;99.90;;;;;;5021324;28;20068;-69
2022/06/11 12:41:49;;;;;;;7.03;1.70;;;24.70;99.90;;;;;;5002969;28;20849;-68
2022/06/11 12:44:29;;;;;;;3.58;1.52;;;24.80;99.90;;;;;;5022082;28;20140;-70
2022/06/11 12:47:24;;;;;;;3.30;1.70;;;25.10;99.90;;;;;;5021153;28;20034;-72
2022/06/11 12:50:11;;;;;;;5.05;1.10;;;25.30;99.90;;;;;;5017737;28;20038;-71
2022/06/11 12:52:57;;;;;;;5.68;1.52;;;25.60;99.90;;;;;;5021040;28;20040;-73
2022/06/11 12:55:49;;;;;;;8.13;1.52;;;25.90;99.90;;;;;;5020394;28;20041;-72
2022/06/11 12:58:39;;;;;;;9.60;1.23;;;25.90;99.90;;;;;;5018029;28;20113;-70
2022/06/11 13:01:47;;;;;;;3.67;1.52;;;25.80;99.90;;;;;;5019202;28;20033;-71
2022/06/11 13:04:44;;;;;;;5.07;1.58;;;25.70;99.90;;;;;;4941053;29;20042;-71
2022/06/11 13:07:33;;;;;;;3.53;1.15;;;25.90;99.90;;;;;;5020197;28;20133;-75
2022/06/11 13:10:21;;;;;;;10.55;1.25;;;25.80;99.90;;;;;;5020947;28;20325;-69
2022/06/11 13:12:52;;;;;;;3.70;1.15;;;25.70;99.90;;;;;;5021796;28;20022;-70
2022/06/11 13:15:51;;;;;;;4.38;1.65;;;25.90;99.90;;;;;;5024733;28;20057;-71